Time;durP1;ratioP1;P1;durP2;ratioP2;P2;SDS_P1;SDS_P2;PMS_P1;PMS_P2;Temp;Humidity;BMP_temperature;BMP_pressure;BME280_temperature;BME280_humidity;BME280_pressure;Samples;Min_cycle;Max_cycle;Signal;HPM_P1;HPM_P2
2022/03/31 00:00:38;;;;;;;11.23;7.77;;;;;;;6.37;62.47;98927.53;4926190;28;97163;-83
2022/03/31 00:03:06;;;;;;;12.10;8.10;;;;;;;6.45;62.76;98930.69;4915767;28;96880;-78
2022/03/31 00:09:19;;;;;;;10.53;7.87;;;;;;;6.39;62.66;98934.38;4948628;28;97080;-78
2022/03/31 00:11:44;;;;;;;11.93;8.97;;;;;;;6.48;62.44;98934.03;4917468;28;97147;-78
2022/03/31 00:14:10;;;;;;;13.50;9.10;;;;;;;6.41;62.21;98934.34;4918219;28;97226;-78
2022/03/31 00:16:36;;;;;;;10.83;8.13;;;;;;;6.32;62.61;98939.00;4917271;28;101368;-77
2022/03/31 00:19:01;;;;;;;11.33;8.87;;;;;;;6.35;62.06;98938.88;4917437;28;101701;-78
2022/03/31 00:21:27;;;;;;;10.70;9.30;;;;;;;6.32;62.60;98939.00;4901290;28;97115;-78
2022/03/31 00:23:52;;;;;;;11.83;9.20;;;;;;;6.14;62.31;98908.44;4951268;28;96803;-78
2022/03/31 00:26:18;;;;;;;11.00;9.10;;;;;;;6.26;62.47;98930.56;4914457;28;100612;-78
2022/03/31 00:28:44;;;;;;;10.53;9.03;;;;;;;6.28;62.59;98924.41;4932702;28;97968;-77
2022/03/31 00:31:09;;;;;;;10.43;8.80;;;;;;;6.17;62.62;98897.03;4901736;28;97291;-82
2022/03/31 00:33:35;;;;;;;11.57;8.10;;;;;;;6.37;62.38;98919.72;4917109;28;96895;-77
2022/03/31 00:36:00;;;;;;;11.87;9.83;;;;;;;6.30;62.43;98913.91;4934000;28;97300;-78
2022/03/31 00:38:26;;;;;;;11.00;9.77;;;;;;;6.37;62.42;98919.72;4917873;28;97383;-82
2022/03/31 00:40:51;;;;;;;12.30;9.67;;;;;;;6.27;62.38;98927.88;4917502;28;97041;-78
2022/03/31 00:43:17;;;;;;;13.23;9.77;;;;;;;6.32;62.29;98918.16;4917666;28;96882;-77
2022/03/31 00:45:50;;;;;;;9.83;8.60;;;;;;;6.32;62.27;98925.13;4915945;28;97476;-77
2022/03/31 00:48:17;;;;;;;11.33;9.57;;;;;;;6.21;62.30;98904.69;4929646;28;97885;-78
2022/03/31 00:50:43;;;;;;;11.47;9.37;;;;;;;6.33;62.67;98922.44;4914004;28;96639;-78
2022/03/31 00:53:09;;;;;;;13.40;9.23;;;;;;;6.40;62.22;98915.25;4911199;28;97105;-78
2022/03/31 00:55:35;;;;;;;11.27;9.13;;;;;;;6.45;62.33;98921.09;4904610;28;101391;-78
2022/03/31 00:58:01;;;;;;;12.60;9.47;;;;;;;6.48;62.37;98914.94;4913978;28;100643;-78
2022/03/31 01:00:26;;;;;;;10.23;8.77;;;;;;;6.46;62.55;98908.94;4924290;28;97082;-82
2022/03/31 01:02:52;;;;;;;11.10;9.73;;;;;;;6.49;62.51;98909.66;4916858;28;96942;-77
2022/03/31 01:05:18;;;;;;;10.50;9.23;;;;;;;6.47;62.43;98910.63;4900320;28;100642;-79
2022/03/31 01:07:44;;;;;;;11.90;10.13;;;;;;;6.46;62.41;98911.56;4916420;28;97249;-78
2022/03/31 01:10:12;;;;;;;11.30;9.53;;;;;;;6.49;62.26;98920.09;4899428;28;97280;-78
2022/03/31 01:12:38;;;;;;;11.30;10.07;;;;;;;6.32;62.12;98893.84;4914969;28;97986;-78
2022/03/31 01:15:15;;;;;;;12.83;10.40;;;;;;;6.45;62.40;98923.72;4916587;28;98319;-78
2022/03/31 01:17:45;;;;;;;12.60;9.77;;;;;;;6.46;62.21;98919.38;4916358;28;101229;-77
2022/03/31 01:20:17;;;;;;;11.33;9.57;;;;;;;6.48;62.51;98915.78;4917428;28;97015;-77
2022/03/31 01:22:44;;;;;;;10.43;9.17;;;;;;;6.30;62.02;98885.22;4933859;28;97131;-77
2022/03/31 01:25:10;;;;;;;11.53;9.73;;;;;;;6.43;62.20;98906.44;4938733;28;101351;-77
2022/03/31 01:27:43;;;;;;;12.77;9.93;;;;;;;6.12;62.11;98889.41;4932912;28;97475;-78
2022/03/31 01:30:13;;;;;;;12.33;10.17;;;;;;;6.25;62.36;98894.97;4916616;28;96884;-78
2022/03/31 01:32:39;;;;;;;12.20;9.97;;;;;;;6.28;62.76;98911.38;4916357;28;96751;-78
2022/03/31 01:35:07;;;;;;;13.57;10.63;;;;;;;6.27;62.55;98901.00;4916168;28;101252;-78
2022/03/31 01:37:33;;;;;;;13.30;10.30;;;;;;;6.34;62.88;98905.91;4916138;28;99636;-83
2022/03/31 01:39:59;;;;;;;12.03;10.30;;;;;;;6.36;62.92;98903.22;4918247;28;97186;-78
2022/03/31 01:42:28;;;;;;;12.02;10.70;;;;;;;6.39;62.49;98915.28;4920195;28;96853;-77
2022/03/31 01:44:54;;;;;;;13.03;10.67;;;;;;;6.30;62.90;98903.47;4918270;28;101769;-78
2022/03/31 01:47:20;;;;;;;13.60;10.80;;;;;;;6.08;63.05;98901.72;4936577;28;97406;-78
2022/03/31 01:49:45;;;;;;;14.17;10.87;;;;;;;6.05;63.10;98878.38;4906467;28;97118;-77
2022/03/31 01:52:11;;;;;;;14.17;10.53;;;;;;;6.18;62.93;98901.34;4920311;28;97033;-78
2022/03/31 01:54:37;;;;;;;13.77;9.93;;;;;;;6.11;62.96;98890.31;4919454;28;101393;-78
2022/03/31 01:57:03;;;;;;;13.77;10.77;;;;;;;6.24;62.69;98907.16;4936321;28;97997;-77
2022/03/31 01:59:36;;;;;;;16.00;11.10;;;;;;;6.24;63.32;98914.13;4919377;28;97392;-78
2022/03/31 02:02:03;;;;;;;18.23;11.87;;;;;;;6.16;62.79;98905.75;4920259;28;96628;-77
2022/03/31 02:04:28;;;;;;;16.17;11.17;;;;;;;6.21;63.41;98898.63;4919724;28;98024;-78
2022/03/31 02:06:54;;;;;;;14.17;12.03;;;;;;;6.27;63.15;98899.22;4918724;28;100760;-77
2022/03/31 02:09:20;;;;;;;14.87;11.87;;;;;;;6.33;63.06;98912.00;4919182;28;96736;-77
2022/03/31 02:11:46;;;;;;;15.20;11.37;;;;;;;6.20;62.96;98889.97;4934948;28;96851;-78
2022/03/31 02:14:15;;;;;;;12.97;10.70;;;;;;;6.19;62.82;98914.31;4903254;28;100255;-78
2022/03/31 02:16:40;;;;;;;13.83;10.63;;;;;;;6.13;62.71;98891.94;4903368;28;101616;-77
2022/03/31 02:19:06;;;;;;;13.90;11.70;;;;;;;6.21;62.92;98915.09;4919055;28;97005;-77
2022/03/31 02:21:32;;;;;;;15.30;11.40;;;;;;;6.25;63.23;98919.28;4918854;28;96927;-77
2022/03/31 02:23:58;;;;;;;20.03;12.37;;;;;;;6.19;62.84;98895.22;4918328;28;98131;-77
2022/03/31 02:26:24;;;;;;;14.53;11.70;;;;;;;6.11;62.77;98892.94;4919705;28;97229;-78
2022/03/31 02:28:49;;;;;;;15.90;11.10;;;;;;;6.17;62.50;98897.03;4918662;28;97135;-77
2022/03/31 02:31:15;;;;;;;13.80;10.57;;;;;;;6.31;62.93;98906.03;4935356;28;97070;-78
2022/03/31 02:33:41;;;;;;;17.20;11.07;;;;;;;6.13;62.84;98872.84;4918893;28;97891;-77
2022/03/31 02:36:07;;;;;;;20.83;11.47;;;;;;;6.23;62.76;98913.28;4919020;28;101472;-77
2022/03/31 02:38:34;;;;;;;15.57;11.67;;;;;;;5.98;62.85;98876.06;4935373;28;96738;-78
2022/03/31 02:41:01;;;;;;;19.43;12.70;;;;;;;6.13;62.76;98907.56;4935444;28;96943;-78
2022/03/31 02:43:26;;;;;;;16.57;11.37;;;;;;;6.00;62.96;98906.34;4918501;28;98173;-78
2022/03/31 02:45:52;;;;;;;15.60;12.07;;;;;;;5.98;63.41;98889.91;4933361;28;97851;-77
2022/03/31 02:48:17;;;;;;;13.83;11.27;;;;;;;5.92;63.21;98874.50;4913762;28;97285;-78
2022/03/31 02:50:43;;;;;;;14.83;11.33;;;;;;;6.05;63.26;98898.34;4906845;28;97823;-77
2022/03/31 02:55:53;;;;;;;13.87;12.10;;;;;;;6.06;63.31;98915.69;4937537;28;97997;-78
2022/03/31 02:58:18;;;;;;;15.53;12.60;;;;;;;6.05;63.11;98906.16;4918790;28;96993;-78
2022/03/31 03:00:44;;;;;;;18.60;12.43;;;;;;;6.01;63.27;98895.00;4919223;28;96812;-77
2022/03/31 03:03:11;;;;;;;16.20;12.17;;;;;;;6.06;63.66;98903.50;4913051;28;101434;-77
2022/03/31 03:05:37;;;;;;;17.23;11.87;;;;;;;5.99;63.58;98899.47;4912491;28;97705;-83
2022/03/31 03:08:03;;;;;;;17.77;11.47;;;;;;;6.00;63.69;98900.31;4903462;28;96768;-78
2022/03/31 03:10:29;;;;;;;15.77;12.13;;;;;;;6.09;63.52;98900.78;4935036;28;96812;-77
2022/03/31 03:12:57;;;;;;;18.53;12.27;;;;;;;6.13;63.61;98899.75;4934348;28;98016;-77
2022/03/31 03:15:25;;;;;;;16.80;11.80;;;;;;;6.16;63.11;98908.38;4918952;28;101274;-78
2022/03/31 03:17:50;;;;;;;17.17;11.50;;;;;;;6.10;63.53;98901.63;4918499;28;97359;-77
2022/03/31 03:20:17;;;;;;;17.37;12.90;;;;;;;6.02;63.29;98893.25;4906112;28;97214;-78
2022/03/31 03:22:50;;;;;;;17.00;12.83;;;;;;;5.89;63.52;98878.06;4904959;28;100452;-78
2022/03/31 03:25:18;;;;;;;16.60;12.60;;;;;;;6.00;63.51;98892.50;4933738;28;97585;-77
2022/03/31 03:27:45;;;;;;;20.47;13.53;;;;;;;6.01;63.71;98895.00;4906558;28;96659;-79
2022/03/31 03:30:11;;;;;;;16.77;12.53;;;;;;;6.02;63.91;98891.53;4923600;28;96956;-77
2022/03/31 03:32:37;;;;;;;17.27;13.70;;;;;;;6.03;63.59;98898.41;4918110;28;101269;-84
2022/03/31 03:35:08;;;;;;;19.47;13.47;;;;;;;5.99;63.14;98899.47;4952052;28;98794;-78
2022/03/31 03:37:34;;;;;;;18.27;12.80;;;;;;;5.94;63.44;98895.31;4918080;28;97055;-80
2022/03/31 03:40:02;;;;;;;17.27;12.30;;;;;;;5.96;63.42;98883.91;4916436;28;96941;-78
2022/03/31 03:42:28;;;;;;;20.27;13.03;;;;;;;5.97;63.43;98890.00;4918359;28;101336;-78
2022/03/31 03:44:54;;;;;;;14.27;11.47;;;;;;;6.03;63.23;98892.38;4917054;28;101446;-77
2022/03/31 03:47:21;;;;;;;14.37;11.97;;;;;;;5.92;63.25;98892.72;4918147;28;96747;-77
2022/03/31 03:49:46;;;;;;;14.50;10.67;;;;;;;5.79;62.52;98905.38;4904579;28;97174;-78
2022/03/31 03:52:12;;;;;;;16.57;11.20;;;;;;;5.64;63.31;98898.09;4901978;28;100970;-78
2022/03/31 03:54:37;;;;;;;13.50;10.03;;;;;;;5.59;62.83;98902.66;4918481;28;97352;-84
2022/03/31 03:57:04;;;;;;;12.50;10.03;;;;;;;5.62;63.10;98900.78;4918166;28;96641;-78
2022/03/31 03:59:29;;;;;;;19.73;11.23;;;;;;;5.54;62.77;98897.59;4934330;28;97408;-80
2022/03/31 04:01:55;;;;;;;15.17;11.83;;;;;;;5.60;63.12;98894.78;4917290;28;97572;-78
2022/03/31 04:04:20;;;;;;;14.63;11.10;;;;;;;5.56;63.23;98902.75;4905909;28;101742;-78
2022/03/31 04:06:46;;;;;;;13.13;10.63;;;;;;;5.47;63.30;98895.25;4933865;28;97049;-78
2022/03/31 04:09:11;;;;;;;14.23;9.97;;;;;;;5.40;63.40;98879.03;4917187;28;97391;-78
2022/03/31 04:11:37;;;;;;;15.37;9.87;;;;;;;5.50;63.07;98888.22;4933280;28;98067;-87
2022/03/31 04:14:03;;;;;;;14.53;11.13;;;;;;;5.53;63.26;98906.31;4947160;28;98292;-78
2022/03/31 04:16:29;;;;;;;12.43;10.20;;;;;;;5.59;63.15;98900.88;4906783;28;96856;-79
2022/03/31 04:18:54;;;;;;;12.63;10.30;;;;;;;5.42;63.23;98901.50;4915425;28;97305;-77
2022/03/31 04:21:20;;;;;;;13.50;11.03;;;;;;;5.30;63.50;98883.72;4900665;28;100586;-78
2022/03/31 04:23:45;;;;;;;12.60;10.57;;;;;;;5.56;63.66;98908.81;4915989;28;101383;-78
2022/03/31 04:26:11;;;;;;;16.43;11.93;;;;;;;5.50;63.85;98903.84;4916733;28;97012;-77
2022/03/31 04:28:37;;;;;;;16.47;11.43;;;;;;;5.55;63.39;98914.06;4920663;28;97073;-78
2022/03/31 04:31:02;;;;;;;15.70;11.57;;;;;;;5.48;63.14;98881.38;4912860;28;101590;-78
2022/03/31 04:33:28;;;;;;;18.83;12.57;;;;;;;5.67;63.52;98921.41;4954904;28;101085;-79
2022/03/31 04:35:55;;;;;;;13.03;11.27;;;;;;;5.56;63.26;98916.63;4917717;28;97080;-78
2022/03/31 04:38:20;;;;;;;16.33;11.87;;;;;;;5.35;63.56;98912.16;4921981;28;97201;-78
2022/03/31 04:40:46;;;;;;;16.00;11.13;;;;;;;5.25;63.81;98918.59;4901021;28;101470;-78
2022/03/31 04:43:12;;;;;;;13.83;10.83;;;;;;;5.36;63.91;98924.28;4917848;28;101086;-78
2022/03/31 04:45:37;;;;;;;14.43;11.67;;;;;;;5.42;63.93;98924.06;4919554;28;97019;-79
2022/03/31 04:48:03;;;;;;;17.07;12.40;;;;;;;5.57;63.96;98925.28;4917246;28;96991;-78
2022/03/31 04:50:29;;;;;;;15.57;12.07;;;;;;;5.61;63.93;98932.94;4932563;28;101354;-78
2022/03/31 04:52:54;;;;;;;17.13;12.93;;;;;;;5.53;63.86;98921.94;4916855;28;98127;-78
2022/03/31 04:55:20;;;;;;;17.17;11.97;;;;;;;5.44;63.83;98902.28;4933822;28;96747;-78
2022/03/31 04:57:46;;;;;;;21.13;13.07;;;;;;;5.63;63.58;98923.28;4933175;28;96673;-80
2022/03/31 05:00:12;;;;;;;17.73;13.10;;;;;;;5.61;63.86;98906.91;4916856;28;98264;-86
2022/03/31 05:02:38;;;;;;;17.83;13.27;;;;;;;5.59;64.01;98907.84;4916824;28;101256;-77
2022/03/31 05:05:03;;;;;;;17.93;13.23;;;;;;;5.74;63.58;98927.28;4916837;28;96749;-82
2022/03/31 05:07:29;;;;;;;17.50;14.10;;;;;;;5.70;63.38;98921.31;4933568;28;96781;-78
2022/03/31 05:09:55;;;;;;;16.13;12.60;;;;;;;5.72;62.96;98916.91;4911041;28;101204;-79
2022/03/31 05:12:21;;;;;;;16.73;14.00;;;;;;;5.70;63.45;98916.09;4931989;28;97298;-81
2022/03/31 05:14:46;;;;;;;17.37;12.53;;;;;;;5.66;63.19;98912.75;4894551;28;97332;-78
2022/03/31 05:17:12;;;;;;;17.33;12.50;;;;;;;5.62;63.40;98923.38;4930455;28;96801;-79
2022/03/31 05:19:38;;;;;;;18.17;12.57;;;;;;;5.61;63.02;98924.25;4906014;28;101588;-78
2022/03/31 05:22:04;;;;;;;18.63;12.87;;;;;;;5.70;63.42;98936.94;4915784;28;98401;-78
2022/03/31 05:24:30;;;;;;;17.50;11.83;;;;;;;5.55;63.00;98919.25;4915351;28;97033;-79
2022/03/31 05:26:56;;;;;;;15.37;12.10;;;;;;;5.55;62.84;98914.06;4911300;28;97116;-78
2022/03/31 05:29:22;;;;;;;15.20;12.30;;;;;;;5.65;62.76;98931.91;4924969;28;98061;-78
2022/03/31 05:31:48;;;;;;;14.97;11.47;;;;;;;5.65;62.96;98941.47;4906496;28;101016;-78
2022/03/31 05:34:14;;;;;;;19.23;13.03;;;;;;;5.66;62.97;98943.16;4936834;28;96625;-78
2022/03/31 05:36:40;;;;;;;16.10;11.83;;;;;;;5.61;62.61;98942.47;4919201;28;97190;-88
2022/03/31 05:39:06;;;;;;;13.70;11.83;;;;;;;5.58;62.72;98943.44;4900574;28;101161;-83
2022/03/31 05:41:32;;;;;;;15.73;11.87;;;;;;;5.51;62.97;98941.13;4915770;28;101177;-80
2022/03/31 05:43:57;;;;;;;15.57;12.53;;;;;;;5.51;63.41;98943.72;4919032;28;97256;-88
2022/03/31 05:46:24;;;;;;;16.67;11.87;;;;;;;5.47;62.84;98927.38;4903779;28;97339;-89
2022/03/31 05:48:50;;;;;;;15.97;12.17;;;;;;;5.50;62.81;98936.78;4930499;28;98663;-89
2022/03/31 05:51:16;;;;;;;17.20;13.07;;;;;;;5.54;62.92;98949.66;4921812;28;101523;-89
2022/03/31 05:53:42;;;;;;;17.17;13.73;;;;;;;5.47;63.15;98945.59;4918884;28;97213;-89
2022/03/31 05:56:07;;;;;;;17.30;14.63;;;;;;;5.44;63.05;98943.94;4938806;28;97010;-87
2022/03/31 05:58:34;;;;;;;21.03;13.90;;;;;;;5.43;63.42;98931.81;4915043;28;96651;-87
2022/03/31 06:01:00;;;;;;;17.83;13.97;;;;;;;5.47;62.73;98935.19;4917806;28;100971;-89
2022/03/31 06:03:25;;;;;;;18.47;14.13;;;;;;;5.45;62.74;98921.34;4914272;28;97803;-89
2022/03/31 06:05:51;;;;;;;16.77;13.73;;;;;;;5.45;62.82;98927.41;4921590;28;97609;-89
2022/03/31 06:08:18;;;;;;;17.93;14.67;;;;;;;5.45;62.91;98939.56;4915410;28;101427;-87
2022/03/31 06:10:44;;;;;;;15.17;13.10;;;;;;;5.40;62.91;98938.88;4928600;28;101140;-86
2022/03/31 06:13:10;;;;;;;19.57;15.07;;;;;;;5.32;62.64;98951.31;4903790;28;96849;-89
2022/03/31 06:15:36;;;;;;;19.13;14.40;;;;;;;5.26;63.05;98948.91;4915650;28;97268;-88
2022/03/31 06:18:02;;;;;;;18.73;14.67;;;;;;;5.20;63.33;98948.22;4933035;28;99002;-89
2022/03/31 06:20:31;;;;;;;16.70;14.60;;;;;;;5.07;63.50;98946.09;4916954;28;101455;-87
2022/03/31 06:22:57;;;;;;;17.80;13.93;;;;;;;5.00;63.44;98948.03;4902369;28;97382;-89
2022/03/31 06:25:23;;;;;;;21.17;14.40;;;;;;;5.20;63.61;98957.78;4920563;28;96996;-91
2022/03/31 06:27:48;;;;;;;17.43;13.67;;;;;;;5.14;63.47;98960.59;4917776;28;97402;-88
2022/03/31 06:30:15;;;;;;;17.67;13.67;;;;;;;5.09;63.10;98954.69;4936283;28;98344;-89
2022/03/31 06:32:41;;;;;;;17.17;14.20;;;;;;;5.16;63.50;98964.84;4919975;28;96996;-89
2022/03/31 06:35:11;;;;;;;19.47;14.40;;;;;;;5.22;63.70;98951.63;4903627;28;97050;-89
2022/03/31 06:37:38;;;;;;;19.27;14.40;;;;;;;5.01;63.08;98960.16;4921324;28;97375;-88
2022/03/31 06:40:05;;;;;;;21.17;15.83;;;;;;;4.65;63.72;98913.63;4919516;28;100362;-89
2022/03/31 06:42:31;;;;;;;18.57;14.43;;;;;;;4.95;63.87;98965.56;4920473;28;97142;-89
2022/03/31 06:44:56;;;;;;;23.47;15.97;;;;;;;4.93;63.65;98962.16;4919051;28;96932;-89
2022/03/31 06:47:22;;;;;;;21.73;15.93;;;;;;;4.98;63.62;98961.09;4916151;28;100121;-79
2022/03/31 06:49:48;;;;;;;22.50;16.47;;;;;;;5.05;63.46;98964.34;4919167;28;101286;-93
2022/03/31 06:52:14;;;;;;;22.27;15.87;;;;;;;4.96;62.93;98936.03;4919118;28;97420;-80
2022/03/31 06:54:39;;;;;;;21.27;15.10;;;;;;;5.17;63.61;98966.53;4902575;28;97334;-82
2022/03/31 06:57:05;;;;;;;23.83;15.80;;;;;;;5.01;63.25;98938.50;4931746;28;97806;-83
2022/03/31 06:59:31;;;;;;;21.90;16.17;;;;;;;5.10;63.26;98962.44;4918413;28;97897;-77
2022/03/31 07:01:57;;;;;;;24.83;16.17;;;;;;;4.79;63.02;98917.53;4909411;28;96739;-81
2022/03/31 07:04:23;;;;;;;21.10;15.70;;;;;;;4.94;62.94;98969.03;4914783;28;97039;-77
2022/03/31 07:06:49;;;;;;;22.43;16.40;;;;;;;4.81;63.57;98972.94;4918552;28;97929;-83
2022/03/31 07:09:15;;;;;;;18.57;15.37;;;;;;;4.71;63.55;98962.84;4918892;28;101328;-79
2022/03/31 07:11:41;;;;;;;17.93;15.33;;;;;;;4.80;63.65;98966.03;4918841;28;96918;-80
2022/03/31 07:14:07;;;;;;;24.17;15.97;;;;;;;4.90;63.96;98972.66;4918386;28;96690;-80
2022/03/31 07:16:33;;;;;;;21.20;15.07;;;;;;;4.77;63.34;98951.41;4944393;28;98296;-85
2022/03/31 07:18:59;;;;;;;21.20;16.23;;;;;;;4.88;63.42;98951.03;4911385;28;97580;-84
2022/03/31 07:21:25;;;;;;;23.03;15.77;;;;;;;4.80;63.30;98935.72;4896873;28;97581;-85
2022/03/31 07:23:51;;;;;;;24.43;15.77;;;;;;;4.81;63.22;98932.19;4918009;28;97388;-84
2022/03/31 07:26:17;;;;;;;19.43;15.23;;;;;;;5.04;62.78;98962.66;4913665;28;97408;-89
2022/03/31 07:28:43;;;;;;;27.93;17.43;;;;;;;4.97;62.64;98943.81;4912805;28;101272;-89
2022/03/31 07:31:09;;;;;;;22.70;14.97;;;;;;;4.96;62.72;98943.84;4918054;28;96714;-82
2022/03/31 07:33:34;;;;;;;22.07;16.27;;;;;;;4.91;62.88;98940.53;4919135;28;96730;-83
2022/03/31 07:36:00;;;;;;;18.83;14.97;;;;;;;4.88;62.90;98953.63;4934054;28;97419;-83
2022/03/31 07:38:26;;;;;;;18.63;15.13;;;;;;;4.58;63.04;98921.69;4915235;28;97805;-83
2022/03/31 07:40:51;;;;;;;22.37;14.63;;;;;;;4.76;63.48;98958.34;4913378;28;97840;-82
2022/03/31 07:43:17;;;;;;;19.60;14.73;;;;;;;4.85;62.77;98962.38;4930623;28;97184;-83
2022/03/31 07:45:43;;;;;;;21.80;15.00;;;;;;;4.74;62.75;98933.28;4916751;28;97531;-84
2022/03/31 07:48:09;;;;;;;23.20;15.40;;;;;;;4.89;62.77;98953.59;4899829;28;101331;-83
2022/03/31 07:50:37;;;;;;;23.93;15.80;;;;;;;4.90;62.40;98959.66;4931423;28;98120;-83
2022/03/31 07:53:03;;;;;;;21.23;14.97;;;;;;;4.75;62.72;98961.00;4917343;28;97230;-83
2022/03/31 07:55:28;;;;;;;23.67;14.73;;;;;;;4.67;62.65;98975.97;4910336;28;101264;-85
2022/03/31 07:57:54;;;;;;;18.13;13.67;;;;;;;4.71;62.87;98969.78;4913192;28;97351;-84
2022/03/31 08:00:20;;;;;;;21.43;15.67;;;;;;;4.73;63.13;98973.19;4900410;28;96801;-87
2022/03/31 08:02:49;;;;;;;18.20;14.17;;;;;;;4.56;62.65;98978.06;4898954;28;97173;-89
2022/03/31 08:05:20;;;;;;;20.87;13.70;;;;;;;4.52;62.76;98974.72;4922401;28;101397;-91
2022/03/31 08:07:46;;;;;;;20.48;14.38;;;;;;;4.58;63.32;98978.88;4899378;28;100462;-89
2022/03/31 08:10:12;;;;;;;19.40;13.83;;;;;;;4.60;63.34;98980.53;4898541;28;96853;-86
2022/03/31 08:12:40;;;;;;;20.47;14.27;;;;;;;4.63;62.90;98972.63;4899392;28;96757;-87
2022/03/31 08:15:07;;;;;;;19.33;13.13;;;;;;;4.66;63.23;98977.72;4896242;28;101291;-84
2022/03/31 08:17:33;;;;;;;18.23;13.53;;;;;;;4.72;63.00;98977.53;4897973;28;101544;-84
2022/03/31 08:19:59;;;;;;;20.90;14.37;;;;;;;4.85;62.68;98988.38;4896387;28;97286;-83
2022/03/31 08:22:26;;;;;;;18.67;14.27;;;;;;;4.75;63.22;98981.78;4895282;28;97772;-84
2022/03/31 08:24:53;;;;;;;19.07;14.40;;;;;;;4.59;63.03;98988.34;4909992;28;101491;-84
2022/03/31 08:27:19;;;;;;;18.00;13.43;;;;;;;4.36;63.51;98976.06;4928353;28;101662;-83
2022/03/31 08:29:45;;;;;;;18.33;14.40;;;;;;;4.43;63.67;98980.19;4906652;28;96889;-84
2022/03/31 08:32:12;;;;;;;20.27;14.53;;;;;;;4.57;63.69;98991.03;4908142;28;96959;-78
2022/03/31 08:34:38;;;;;;;25.47;15.10;;;;;;;4.61;63.35;98987.41;4923717;28;97403;-82
2022/03/31 08:37:04;;;;;;;17.43;14.20;;;;;;;4.61;63.43;98991.78;4925179;28;100313;-87
2022/03/31 08:39:29;;;;;;;21.90;14.23;;;;;;;4.70;63.51;98983.69;4909328;28;96753;-92
2022/03/31 08:41:55;;;;;;;18.30;13.93;;;;;;;4.78;63.07;98997.28;4906955;28;97057;-90
2022/03/31 08:44:21;;;;;;;20.27;14.70;;;;;;;4.72;63.33;98993.13;4919452;28;101792;-90
2022/03/31 08:46:48;;;;;;;23.57;15.07;;;;;;;4.67;63.37;98981.19;4871166;28;1255706;-86
2022/03/31 08:49:14;;;;;;;22.57;15.20;;;;;;;4.47;63.65;98995.63;4924562;28;97042;-90
2022/03/31 08:51:39;;;;;;;19.23;14.93;;;;;;;4.43;63.85;98988.84;4916892;28;97305;-87
2022/03/31 08:54:05;;;;;;;21.77;15.93;;;;;;;4.43;64.05;98985.38;4905580;28;100478;-84
2022/03/31 08:56:31;;;;;;;21.40;15.97;;;;;;;4.37;64.45;98985.56;4913881;28;97915;-77
2022/03/31 08:58:56;;;;;;;22.40;15.80;;;;;;;4.47;64.15;98993.03;4900189;28;97051;-83
2022/03/31 09:01:22;;;;;;;20.57;16.60;;;;;;;4.49;64.09;98985.19;4913102;28;97339;-78
2022/03/31 09:03:48;;;;;;;23.30;15.67;;;;;;;4.44;64.07;98984.47;4933017;28;97392;-85
2022/03/31 09:06:25;;;;;;;26.23;16.30;;;;;;;4.47;63.98;98985.22;4915861;28;101437;-80
2022/03/31 09:08:58;;;;;;;22.07;16.10;;;;;;;4.35;64.33;98993.41;4920335;28;97112;-84
2022/03/31 09:11:28;;;;;;;23.13;16.10;;;;;;;4.28;64.61;99004.88;4911393;28;98045;-78
2022/03/31 09:13:55;;;;;;;21.87;15.23;;;;;;;4.48;64.23;99006.88;4931421;28;101417;-78
2022/03/31 09:16:29;;;;;;;22.07;16.10;;;;;;;4.62;64.09;99006.47;4905213;28;98397;-78
2022/03/31 09:19:03;;;;;;;28.73;17.00;;;;;;;4.60;64.29;99001.31;4915698;28;97590;-78
2022/03/31 09:21:30;;;;;;;21.77;15.87;;;;;;;4.63;64.03;99006.44;4914669;28;97156;-78
2022/03/31 09:23:57;;;;;;;22.47;16.23;;;;;;;4.64;64.18;99000.31;4948100;28;100632;-77
2022/03/31 09:26:22;;;;;;;27.33;18.27;;;;;;;4.60;64.39;98992.69;4916632;28;97935;-77
2022/03/31 09:28:50;;;;;;;23.00;16.17;;;;;;;4.68;63.91;98994.16;4916626;28;96704;-77
2022/03/31 09:31:22;;;;;;;25.40;17.97;;;;;;;4.69;64.26;98985.44;4914918;28;96961;-77
2022/03/31 09:33:56;;;;;;;25.53;17.40;;;;;;;4.65;63.92;98996.81;4916092;28;101175;-77
2022/03/31 09:36:23;;;;;;;26.53;19.30;;;;;;;4.59;64.38;98998.75;4909671;28;101048;-78
2022/03/31 09:39:00;;;;;;;25.20;17.13;;;;;;;4.64;64.48;98994.28;4921427;28;96838;-77
2022/03/31 09:41:30;;;;;;;24.00;18.03;;;;;;;4.72;64.18;98997.50;4927309;28;96917;-77
2022/03/31 09:43:58;;;;;;;29.00;17.70;;;;;;;4.70;64.27;99001.88;4911441;28;101276;-77
2022/03/31 09:46:34;;;;;;;28.63;19.20;;;;;;;4.71;64.26;98990.56;4917945;28;97915;-77
2022/03/31 09:49:14;;;;;;;26.13;17.83;;;;;;;4.52;64.44;98964.31;4910683;28;97989;-80
2022/03/31 09:51:42;;;;;;;25.53;18.80;;;;;;;4.56;64.59;98986.69;4929409;28;96774;-79
2022/03/31 09:54:07;;;;;;;27.23;18.43;;;;;;;4.54;64.52;98978.97;4914548;28;101646;-78
2022/03/31 09:56:39;;;;;;;24.50;18.17;;;;;;;4.48;64.66;98986.94;4901979;28;101172;-77
2022/03/31 09:59:07;;;;;;;28.23;17.88;;;;;;;4.43;64.64;98962.00;4927694;28;96928;-78
2022/03/31 10:01:34;;;;;;;25.77;18.67;;;;;;;4.69;64.81;98987.19;4914259;28;97132;-77
2022/03/31 10:04:02;;;;;;;26.23;17.27;;;;;;;4.69;64.50;98979.38;4920114;28;101635;-78
2022/03/31 10:06:27;;;;;;;26.07;18.50;;;;;;;4.77;64.51;98982.59;4930755;28;101390;-78
2022/03/31 10:08:56;;;;;;;27.53;18.97;;;;;;;4.37;64.62;98936.22;4939658;28;96767;-84
2022/03/31 10:11:23;;;;;;;26.87;18.77;;;;;;;4.59;64.78;98955.41;4907899;28;97171;-77
2022/03/31 10:13:52;;;;;;;25.57;18.03;;;;;;;4.79;64.47;98967.78;4914872;28;97971;-77
2022/03/31 10:16:28;;;;;;;25.70;18.50;;;;;;;4.81;64.31;98954.75;4930327;28;101483;-77
2022/03/31 10:18:54;;;;;;;26.83;20.13;;;;;;;4.89;63.97;98977.00;4914997;28;97290;-84
2022/03/31 10:21:30;;;;;;;26.30;19.03;;;;;;;4.79;64.51;98965.19;4921195;28;97005;-77
2022/03/31 10:26:41;;;;;;;30.63;20.20;;;;;;;4.91;63.91;98969.97;4917659;28;101360;-81
2022/03/31 10:29:14;;;;;;;30.77;20.30;;;;;;;4.82;64.00;98943.44;4922169;28;97349;-78
2022/03/31 10:31:42;;;;;;;24.27;18.97;;;;;;;4.99;64.26;98968.00;4901357;28;97381;-79
2022/03/31 10:34:09;;;;;;;28.37;19.57;;;;;;;5.06;63.88;98963.47;4918335;28;101406;-78
2022/03/31 10:36:45;;;;;;;28.27;19.97;;;;;;;4.86;63.81;98935.50;4919536;28;97891;-77
2022/03/31 10:39:18;;;;;;;24.13;18.53;;;;;;;5.02;63.52;98966.19;4938033;28;97252;-77
2022/03/31 10:41:45;;;;;;;25.43;18.97;;;;;;;4.92;63.69;98965.66;4918655;28;96786;-77
2022/03/31 10:44:11;;;;;;;21.43;17.13;;;;;;;4.85;64.15;98957.19;4911611;28;99247;-77
2022/03/31 10:46:37;;;;;;;25.10;18.00;;;;;;;4.72;63.69;98935.09;4934453;28;101412;-78
2022/03/31 10:49:07;;;;;;;20.73;16.07;;;;;;;4.86;63.70;98943.31;4906260;28;97410;-77
2022/03/31 10:51:33;;;;;;;24.67;17.23;;;;;;;4.97;63.65;98936.00;4911618;28;96803;-78
2022/03/31 10:54:00;;;;;;;28.57;18.13;;;;;;;4.91;63.39;98920.56;4918420;28;101801;-79
2022/03/31 10:56:27;;;;;;;28.20;17.17;;;;;;;5.02;63.58;98930.63;4918673;28;101708;-80
2022/03/31 10:58:56;;;;;;;25.37;17.60;;;;;;;4.98;63.97;98940.28;4934401;28;96737;-85
2022/03/31 11:01:23;;;;;;;28.23;18.80;;;;;;;4.84;63.87;98903.50;4915106;28;97259;-78
2022/03/31 11:03:50;;;;;;;23.53;17.80;;;;;;;5.01;63.83;98926.34;4931205;28;98062;-76
2022/03/31 11:06:18;;;;;;;24.93;18.67;;;;;;;4.90;63.68;98918.88;4913692;28;101144;-77
2022/03/31 11:08:48;;;;;;;26.97;19.33;;;;;;;4.89;64.37;98925.00;4945983;28;97220;-77
2022/03/31 11:11:19;;;;;;;24.77;17.50;;;;;;;4.77;64.51;98912.41;4937465;28;97119;-77
2022/03/31 11:13:45;;;;;;;27.90;19.13;;;;;;;4.76;64.30;98929.72;4908735;28;101568;-78
2022/03/31 11:16:11;;;;;;;29.13;18.77;;;;;;;4.83;64.46;98926.94;4899926;28;101606;-77
2022/03/31 11:18:36;;;;;;;26.80;18.70;;;;;;;4.85;64.52;98931.19;4918710;28;97319;-77
2022/03/31 11:21:03;;;;;;;24.93;18.33;;;;;;;4.82;64.52;98920.88;4933094;28;96799;-77
2022/03/31 11:23:30;;;;;;;26.77;19.63;;;;;;;4.67;64.37;98913.59;4916705;28;101300;-81
2022/03/31 11:25:56;;;;;;;24.77;19.50;;;;;;;4.73;64.87;98921.19;4916829;28;101457;-89
2022/03/31 11:28:22;;;;;;;25.97;19.23;;;;;;;4.69;64.86;98932.59;4911117;28;97915;-78
2022/03/31 11:30:48;;;;;;;25.87;18.77;;;;;;;4.71;64.84;98912.59;4908352;28;96802;-78